createdAt,value
2023-04-19T00:02:12.033Z,13.87
2023-04-19T00:04:38.965Z,13.63
2023-04-19T00:07:05.821Z,13.10
2023-04-19T00:09:32.487Z,13.13
2023-04-19T00:11:59.212Z,12.70
2023-04-19T00:14:27.300Z,13.02
2023-04-19T00:16:54.048Z,13.05
2023-04-19T00:19:21.003Z,14.93
2023-04-19T00:21:47.829Z,13.90
2023-04-19T00:24:14.792Z,15.25
2023-04-19T00:26:41.687Z,14.60
2023-04-19T00:29:08.374Z,14.60
2023-04-19T00:31:36.661Z,13.20
2023-04-19T00:34:03.370Z,13.55
2023-04-19T00:36:30.078Z,13.90
2023-04-19T00:38:56.762Z,13.63
2023-04-19T00:41:23.603Z,13.23
2023-04-19T00:43:50.361Z,14.93
2023-04-19T00:46:17.173Z,10.30
2023-04-19T00:48:45.333Z,15.05
2023-04-19T00:51:12.974Z,13.98
2023-04-19T00:53:41.060Z,16.30
2023-04-19T00:56:09.349Z,13.65
2023-04-19T00:58:37.667Z,14.88
2023-04-19T01:01:04.592Z,13.73
2023-04-19T01:06:14.701Z,14.88
2023-04-19T01:08:41.517Z,14.00
2023-04-19T01:11:08.421Z,16.52
2023-04-19T01:13:35.163Z,15.30
2023-04-19T01:16:01.972Z,15.20
2023-04-19T01:18:28.732Z,14.70
2023-04-19T01:20:55.465Z,15.60
2023-04-19T01:23:23.649Z,15.63
2023-04-19T01:25:50.598Z,14.80
2023-04-19T01:28:17.333Z,15.95
2023-04-19T01:30:44.024Z,15.30
2023-04-19T01:33:10.697Z,14.27
2023-04-19T01:35:39.524Z,15.13
2023-04-19T01:38:06.195Z,16.02
2023-04-19T01:40:34.233Z,16.73
2023-04-19T01:43:00.957Z,14.85
2023-04-19T01:45:27.676Z,15.33
2023-04-19T01:47:54.445Z,16.47
2023-04-19T01:50:21.247Z,15.32
2023-04-19T01:52:47.939Z,14.88
2023-04-19T01:55:14.639Z,15.93
2023-04-19T01:57:42.695Z,15.27
2023-04-19T02:00:11.150Z,15.38
2023-04-19T02:02:38.282Z,15.50
2023-04-19T02:05:06.137Z,14.38
2023-04-19T02:07:32.820Z,16.25
2023-04-19T02:09:59.589Z,15.77
2023-04-19T02:12:26.868Z,16.33
2023-04-19T02:14:55.082Z,16.50
2023-04-19T02:17:21.803Z,15.77
2023-04-19T02:19:48.512Z,15.90
2023-04-19T02:22:15.334Z,14.90
2023-04-19T02:25:00.289Z,17.08
2023-04-19T02:27:27.000Z,16.65
2023-04-19T02:29:55.176Z,15.90
2023-04-19T02:33:02.165Z,15.98
2023-04-19T02:35:28.943Z,15.65
2023-04-19T02:37:55.653Z,14.77
2023-04-19T02:40:22.468Z,15.77
2023-04-19T02:42:49.152Z,16.88
2023-04-19T02:45:17.464Z,16.23
2023-04-19T02:47:44.241Z,15.95
2023-04-19T02:50:11.058Z,16.45
2023-04-19T02:52:37.805Z,17.73
2023-04-19T02:55:05.190Z,15.95
2023-04-19T02:57:32.022Z,15.98
2023-04-19T02:59:59.048Z,17.48
2023-04-19T03:02:27.318Z,17.90
2023-04-19T03:04:54.168Z,17.80
2023-04-19T03:07:20.848Z,15.88
2023-04-19T03:09:47.521Z,17.80
2023-04-19T03:12:14.252Z,17.17
2023-04-19T03:14:40.994Z,17.77
2023-04-19T03:17:07.707Z,19.95
2023-04-19T03:19:35.761Z,17.58
2023-04-19T03:22:02.458Z,18.75
2023-04-19T03:24:29.759Z,20.13
2023-04-19T03:26:56.572Z,19.02
2023-04-19T03:29:23.394Z,19.25
2023-04-19T03:31:50.200Z,18.83
2023-04-19T03:34:17.117Z,19.95
2023-04-19T03:36:45.522Z,19.40
2023-04-19T03:39:12.228Z,20.20
2023-04-19T03:41:40.419Z,17.27
2023-04-19T03:44:07.082Z,19.05
2023-04-19T03:46:33.778Z,18.17
2023-04-19T03:49:00.547Z,20.95
2023-04-19T03:51:27.287Z,17.85
2023-04-19T03:53:55.740Z,19.90
2023-04-19T03:56:22.526Z,19.30
2023-04-19T03:58:50.978Z,19.67
2023-04-19T04:01:18.459Z,19.65
2023-04-19T04:03:45.367Z,19.17
2023-04-19T04:06:12.392Z,18.95
2023-04-19T04:08:39.118Z,18.60
2023-04-19T04:11:07.270Z,18.90
2023-04-19T04:13:36.010Z,21.35
2023-04-19T04:16:02.877Z,21.02
2023-04-19T04:18:29.551Z,22.52
2023-04-19T04:20:56.262Z,21.43
2023-04-19T04:23:22.975Z,20.70
2023-04-19T04:25:56.626Z,22.33
2023-04-19T04:28:25.114Z,22.95
2023-04-19T04:30:51.830Z,20.02
2023-04-19T04:33:18.570Z,22.00
2023-04-19T04:35:45.304Z,21.03
2023-04-19T04:38:23.681Z,21.07
2023-04-19T04:40:52.160Z,21.90
2023-04-19T04:43:19.001Z,20.58
2023-04-19T04:45:47.084Z,21.33
2023-04-19T04:48:14.056Z,22.27
2023-04-19T04:50:40.793Z,20.73
2023-04-19T04:53:07.766Z,23.13
2023-04-19T04:55:34.543Z,21.08
2023-04-19T04:58:01.267Z,19.58
2023-04-19T05:00:28.025Z,20.98
2023-04-19T05:02:56.130Z,21.25
2023-04-19T05:05:25.890Z,20.55
2023-04-19T05:07:52.568Z,20.40
2023-04-19T05:10:19.285Z,19.97
2023-04-19T05:12:46.008Z,21.85
2023-04-19T05:15:12.748Z,23.00
2023-04-19T05:17:39.519Z,21.58
2023-04-19T05:20:08.914Z,21.50
2023-04-19T05:22:35.582Z,20.88
2023-04-19T05:25:02.287Z,22.43
2023-04-19T05:27:28.966Z,20.88
2023-04-19T05:29:55.686Z,20.40
2023-04-19T05:32:22.471Z,21.30
2023-04-19T05:34:49.303Z,22.35
2023-04-19T05:37:17.430Z,22.95
2023-04-19T05:39:44.760Z,22.65
2023-04-19T05:44:38.317Z,22.00
2023-04-19T05:47:05.116Z,21.80
2023-04-19T05:49:31.873Z,21.25
2023-04-19T05:51:58.625Z,22.88
2023-04-19T05:54:26.947Z,16.70
2023-04-19T05:56:53.651Z,22.15
2023-04-19T05:59:20.341Z,19.27
2023-04-19T06:01:47.130Z,20.33
2023-04-19T06:04:14.011Z,21.42
2023-04-19T06:06:41.276Z,21.30
2023-04-19T06:09:07.957Z,20.88
2023-04-19T06:11:43.153Z,21.10
2023-04-19T06:14:17.166Z,20.50
2023-04-19T06:16:44.356Z,20.30
2023-04-19T06:19:11.053Z,20.25
2023-04-19T06:21:37.777Z,21.10
2023-04-19T06:24:06.086Z,19.00
2023-04-19T06:26:32.819Z,20.60
2023-04-19T06:29:00.893Z,19.53
2023-04-19T06:31:27.725Z,19.33
2023-04-19T06:33:54.438Z,21.55
2023-04-19T06:36:21.143Z,21.00
2023-04-19T06:38:47.861Z,19.50
2023-04-19T06:41:14.572Z,19.77
2023-04-19T06:43:41.369Z,21.17
2023-04-19T06:46:09.612Z,21.38
2023-04-19T06:48:36.437Z,18.75
2023-04-19T06:51:03.429Z,20.10
2023-04-19T06:53:30.128Z,19.45
2023-04-19T06:55:59.786Z,18.63
2023-04-19T06:58:26.728Z,19.42
2023-04-19T07:00:53.570Z,17.80
2023-04-19T07:03:22.437Z,18.33
2023-04-19T07:05:49.700Z,17.58
2023-04-19T07:08:16.464Z,19.40
2023-04-19T07:10:43.203Z,18.77
2023-04-19T07:13:11.162Z,18.27
2023-04-19T07:15:38.116Z,17.52
2023-04-19T07:18:05.273Z,17.50
2023-04-19T07:20:33.735Z,17.30
2023-04-19T07:23:00.510Z,17.95
2023-04-19T07:25:27.487Z,17.73
2023-04-19T07:27:54.888Z,17.75
2023-04-19T07:32:48.652Z,16.27
2023-04-19T07:35:15.474Z,17.27
2023-04-19T07:37:43.624Z,17.20
2023-04-19T07:40:11.472Z,15.23
2023-04-19T07:42:38.200Z,16.10
2023-04-19T07:45:07.153Z,15.33
2023-04-19T07:47:33.943Z,16.20
2023-04-19T07:50:00.659Z,14.57
2023-04-19T07:52:27.453Z,15.00
2023-04-19T07:54:55.886Z,15.88
2023-04-19T07:57:22.582Z,16.02
2023-04-19T07:59:49.325Z,14.27
2023-04-19T08:02:16.101Z,14.73
2023-04-19T08:04:44.861Z,14.93
2023-04-19T08:07:11.679Z,14.95
2023-04-19T08:09:38.487Z,14.67
2023-04-19T08:12:07.210Z,14.90
2023-04-19T08:14:43.748Z,15.57
2023-04-19T08:17:25.611Z,14.88
2023-04-19T08:19:53.901Z,15.60
2023-04-19T08:22:21.167Z,12.82
2023-04-19T08:24:51.851Z,14.20
2023-04-19T08:27:20.539Z,13.88
2023-04-19T08:29:47.311Z,12.70
2023-04-19T08:32:14.097Z,13.33
2023-04-19T08:34:40.894Z,12.27
2023-04-19T08:37:07.718Z,12.15
2023-04-19T08:39:35.113Z,10.50
2023-04-19T08:44:48.934Z,11.75
2023-04-19T08:47:31.253Z,12.48
2023-04-19T08:50:13.890Z,13.05
2023-04-19T08:52:56.061Z,12.27
2023-04-19T08:55:25.698Z,11.55
2023-04-19T08:57:52.673Z,11.43
2023-04-19T09:00:21.796Z,11.98
2023-04-19T09:02:50.401Z,10.40
2023-04-19T09:05:19.210Z,11.98
2023-04-19T09:07:46.805Z,9.40
2023-04-19T09:12:41.535Z,8.48
2023-04-19T09:17:38.135Z,10.07
2023-04-19T09:20:07.280Z,10.43
2023-04-19T09:22:34.313Z,10.23
2023-04-19T09:27:32.538Z,9.40
2023-04-19T09:30:02.880Z,9.77
2023-04-19T09:32:44.398Z,8.85
2023-04-19T09:35:13.979Z,9.35
2023-04-19T09:40:25.172Z,8.73
2023-04-19T09:48:04.162Z,7.88
2023-04-19T09:50:34.004Z,7.82
2023-04-19T09:53:07.620Z,8.15
2023-04-19T09:58:05.254Z,9.57
2023-04-19T10:00:41.766Z,9.45
2023-04-19T10:03:15.369Z,9.88
2023-04-19T10:05:46.240Z,8.45
2023-04-19T10:08:13.975Z,7.60
2023-04-19T10:10:42.714Z,7.30
2023-04-19T10:15:52.038Z,7.60
2023-04-19T10:18:23.116Z,7.78
2023-04-19T10:20:55.452Z,8.57
2023-04-19T10:23:22.960Z,7.45
2023-04-19T10:25:55.049Z,7.47
2023-04-19T10:28:21.834Z,8.00
2023-04-19T10:30:58.759Z,8.05
2023-04-19T10:33:27.268Z,7.97
2023-04-19T10:35:58.144Z,9.95
2023-04-19T10:38:40.496Z,10.55
2023-04-19T10:41:07.219Z,10.27
2023-04-19T10:43:34.410Z,10.30
2023-04-19T10:46:02.717Z,10.77
2023-04-19T10:48:34.136Z,9.70
2023-04-19T10:51:03.896Z,11.15
2023-04-19T10:54:01.116Z,11.07
2023-04-19T10:57:10.994Z,10.63
2023-04-19T10:59:38.545Z,10.15
2023-04-19T11:04:58.793Z,10.88
2023-04-19T11:07:26.884Z,10.75
2023-04-19T11:09:53.673Z,10.05
2023-04-19T11:12:22.866Z,10.02
2023-04-19T11:14:52.532Z,10.00
2023-04-19T11:17:20.905Z,8.52
2023-04-19T11:19:54.278Z,9.13
2023-04-19T11:22:26.706Z,9.35
2023-04-19T11:24:53.444Z,11.55
2023-04-19T11:27:20.968Z,11.25
2023-04-19T11:32:14.582Z,10.15
2023-04-19T11:34:41.380Z,10.55
2023-04-19T11:37:09.734Z,11.00
2023-04-19T11:39:46.413Z,11.80
2023-04-19T11:42:21.932Z,10.63
2023-04-19T11:44:49.978Z,10.65
2023-04-19T11:47:16.717Z,10.77
2023-04-19T11:49:43.585Z,11.45
2023-04-19T11:52:10.333Z,11.32
2023-04-19T11:54:37.053Z,11.43
2023-04-19T11:57:06.722Z,10.93
2023-04-19T11:59:34.602Z,10.98
2023-04-19T12:02:08.474Z,10.13
2023-04-19T12:04:35.485Z,11.45
2023-04-19T12:07:03.872Z,10.45
2023-04-19T12:09:32.926Z,12.85
2023-04-19T12:11:59.644Z,10.80
2023-04-19T12:14:27.777Z,11.83
2023-04-19T12:17:08.028Z,12.20
2023-04-19T12:19:35.874Z,12.23
2023-04-19T12:22:08.578Z,12.65
2023-04-19T12:24:35.346Z,12.68
2023-04-19T12:27:02.074Z,12.87
2023-04-19T12:29:31.356Z,13.07
2023-04-19T12:31:58.157Z,13.00
2023-04-19T12:34:24.892Z,13.25
2023-04-19T12:36:51.559Z,13.80
2023-04-19T12:39:18.376Z,14.57
2023-04-19T12:41:45.188Z,15.80
2023-04-19T12:44:12.031Z,13.80
2023-04-19T12:46:40.257Z,14.32
2023-04-19T12:49:07.226Z,14.55
2023-04-19T12:51:34.053Z,12.90
2023-04-19T12:54:00.773Z,13.48
2023-04-19T12:56:27.504Z,12.03
2023-04-19T12:58:54.224Z,12.77
2023-04-19T13:01:20.965Z,12.63
2023-04-19T13:03:49.227Z,15.23
2023-04-19T13:06:16.085Z,17.58
2023-04-19T13:08:46.549Z,16.93
2023-04-19T13:11:16.473Z,16.95
2023-04-19T13:13:43.346Z,17.70
2023-04-19T13:16:10.117Z,18.98
2023-04-19T13:18:36.930Z,20.25
2023-04-19T13:21:07.471Z,22.90
2023-04-19T13:23:35.081Z,21.48
2023-04-19T13:26:03.313Z,24.53
2023-04-19T13:28:30.035Z,25.58
2023-04-19T13:30:56.805Z,26.87
2023-04-19T13:33:23.522Z,27.50
2023-04-19T13:35:50.225Z,26.77
2023-04-19T13:38:18.279Z,25.40
2023-04-19T13:40:45.128Z,27.23
2023-04-19T13:43:11.850Z,27.50
2023-04-19T13:45:38.547Z,26.43
2023-04-19T13:48:06.011Z,27.07
2023-04-19T13:52:59.406Z,26.85
2023-04-19T13:55:27.584Z,26.80
2023-04-19T13:57:54.671Z,25.75
2023-04-19T14:00:21.814Z,27.83
2023-04-19T14:02:50.761Z,28.73
2023-04-19T14:05:19.023Z,25.13
2023-04-19T14:07:45.740Z,25.45
2023-04-19T14:10:12.450Z,26.43
2023-04-19T14:12:40.455Z,23.63
2023-04-19T14:15:08.255Z,23.83
2023-04-19T14:17:34.992Z,23.45
2023-04-19T14:20:01.712Z,24.30
2023-04-19T14:22:28.458Z,23.97
2023-04-19T14:24:55.210Z,22.73
2023-04-19T14:27:21.975Z,24.58
2023-04-19T14:29:50.077Z,23.52
2023-04-19T14:32:25.799Z,23.10
2023-04-19T14:34:53.386Z,21.02
2023-04-19T14:37:22.633Z,23.27
2023-04-19T14:39:49.685Z,22.88
2023-04-19T14:42:16.493Z,21.13
2023-04-19T14:44:45.200Z,21.38
2023-04-19T14:47:13.376Z,20.77
2023-04-19T14:49:40.620Z,21.25
2023-04-19T14:52:10.355Z,20.88
2023-04-19T14:54:37.193Z,21.73
2023-04-19T14:57:04.127Z,21.90
2023-04-19T14:59:30.897Z,20.70
2023-04-19T15:01:57.801Z,20.48
2023-04-19T15:04:26.342Z,20.73
2023-04-19T15:06:53.234Z,20.23
2023-04-19T15:09:19.911Z,19.03
2023-04-19T15:11:46.683Z,18.83
2023-04-19T15:14:13.443Z,17.87
2023-04-19T15:16:40.226Z,19.25
2023-04-19T15:19:06.896Z,19.73
2023-04-19T15:21:35.006Z,17.83
2023-04-19T15:24:01.771Z,15.50
2023-04-19T15:26:28.524Z,16.63
2023-04-19T15:28:55.525Z,16.65
2023-04-19T15:31:22.376Z,16.73
2023-04-19T15:33:49.136Z,16.40
2023-04-19T15:36:16.108Z,16.45
2023-04-19T15:38:44.239Z,17.17
2023-04-19T15:41:11.392Z,20.58
2023-04-19T15:43:38.105Z,16.77
2023-04-19T15:46:05.083Z,17.48
2023-04-19T15:48:34.878Z,16.77
2023-04-19T15:51:01.541Z,18.38
2023-04-19T15:53:28.782Z,16.70
2023-04-19T15:55:56.940Z,18.80
2023-04-19T15:58:23.871Z,16.02
2023-04-19T16:00:52.494Z,16.85
2023-04-19T16:03:19.326Z,17.00
2023-04-19T16:05:46.314Z,18.00
2023-04-19T16:08:13.120Z,17.77
2023-04-19T16:10:39.846Z,16.80
2023-04-19T16:13:07.930Z,16.87
2023-04-19T16:15:34.620Z,15.98
2023-04-19T16:18:01.420Z,16.27
2023-04-19T16:20:28.234Z,16.48
2023-04-19T16:22:55.017Z,16.42
2023-04-19T16:25:21.684Z,17.23
2023-04-19T16:27:48.461Z,16.70
2023-04-19T16:30:16.917Z,18.10
2023-04-19T16:32:43.866Z,14.77
2023-04-19T16:35:11.063Z,16.88
2023-04-19T16:37:37.802Z,16.92
2023-04-19T16:40:07.362Z,14.50
2023-04-19T16:42:34.214Z,14.95
2023-04-19T16:45:01.435Z,16.85
2023-04-19T16:47:29.628Z,16.65
2023-04-19T16:49:56.611Z,16.02
2023-04-19T16:52:24.666Z,16.17
2023-04-19T16:54:51.434Z,14.93
2023-04-19T16:57:18.143Z,16.60
2023-04-19T16:59:44.963Z,17.00
2023-04-19T17:02:11.943Z,17.23
2023-04-19T17:04:40.563Z,17.65
2023-04-19T17:07:07.419Z,16.13
2023-04-19T17:09:34.430Z,16.93
2023-04-19T17:12:01.138Z,18.33
2023-04-19T17:14:28.767Z,17.05
2023-04-19T17:16:55.631Z,16.50
2023-04-19T17:19:22.542Z,18.20
2023-04-19T17:21:50.600Z,18.05
2023-04-19T17:24:17.404Z,16.73
2023-04-19T17:26:44.255Z,18.25
2023-04-19T17:29:11.012Z,18.40
2023-04-19T17:31:37.839Z,17.70
2023-04-19T17:34:04.621Z,17.98
2023-04-19T17:36:32.529Z,16.88
2023-04-19T17:39:00.724Z,15.93
2023-04-19T17:41:27.464Z,16.90
2023-04-19T17:43:54.216Z,16.47
2023-04-19T17:46:20.969Z,16.67
2023-04-19T17:48:47.752Z,16.33
2023-04-19T17:51:14.469Z,16.43
2023-04-19T17:53:41.160Z,16.88
2023-04-19T17:56:10.972Z,17.23
2023-04-19T17:58:37.727Z,17.88
2023-04-19T18:01:04.639Z,18.43
2023-04-19T18:03:31.531Z,19.33
2023-04-19T18:05:58.577Z,17.20
2023-04-19T18:08:25.276Z,19.70
2023-04-19T18:10:52.014Z,18.83
2023-04-19T18:13:20.085Z,17.73
2023-04-19T18:15:48.458Z,17.17
2023-04-19T18:18:15.167Z,18.85
2023-04-19T18:20:41.836Z,18.77
2023-04-19T18:23:08.570Z,17.17
2023-04-19T18:25:35.312Z,18.92
2023-04-19T18:28:02.282Z,18.58
2023-04-19T18:30:30.379Z,22.58
2023-04-19T18:32:57.118Z,20.38
2023-04-19T18:35:23.853Z,22.67
2023-04-19T18:37:50.628Z,21.88
2023-04-19T18:40:17.498Z,24.40
2023-04-19T18:42:44.195Z,20.58
2023-04-19T18:45:11.388Z,21.30
2023-04-19T18:47:39.505Z,16.20
2023-04-19T18:50:07.467Z,12.55
2023-04-19T18:52:35.429Z,9.07
2023-04-19T18:55:02.511Z,7.85
2023-04-19T18:57:30.624Z,5.72
2023-04-19T19:00:00.971Z,5.47
2023-04-19T19:02:28.152Z,5.32
2023-04-19T19:05:01.228Z,5.03
2023-04-19T19:10:01.052Z,3.50
2023-04-19T19:12:29.104Z,3.65
2023-04-19T19:14:55.806Z,3.72
2023-04-19T19:17:22.563Z,4.10
2023-04-19T19:19:49.385Z,3.85
2023-04-19T19:22:27.704Z,3.17
2023-04-19T19:27:21.964Z,3.63
2023-04-19T19:29:48.679Z,3.50
2023-04-19T19:32:16.855Z,3.38
2023-04-19T19:34:54.670Z,3.47
2023-04-19T19:37:24.295Z,3.63
2023-04-19T19:39:52.161Z,3.65
2023-04-19T19:42:19.421Z,3.80
2023-04-19T19:44:46.265Z,3.15
2023-04-19T19:47:13.393Z,3.58
2023-04-19T19:50:02.011Z,3.88
2023-04-19T19:52:28.428Z,4.10
2023-04-19T19:54:55.121Z,4.50
2023-04-19T19:58:14.004Z,3.57
2023-04-19T20:00:31.796Z,4.15
2023-04-19T20:02:56.830Z,4.70
2023-04-19T20:10:21.964Z,4.15
2023-04-19T20:12:48.653Z,3.75
2023-04-19T20:15:15.531Z,2.83
2023-04-19T20:17:44.805Z,3.45
2023-04-19T20:20:12.516Z,4.10
2023-04-19T20:22:39.236Z,4.20
2023-04-19T20:25:08.114Z,3.75
2023-04-19T20:27:34.961Z,4.38
2023-04-19T20:30:01.693Z,4.07
2023-04-19T20:32:28.435Z,4.20
2023-04-19T20:34:56.881Z,3.78
2023-04-19T20:37:23.562Z,3.88
2023-04-19T20:39:50.269Z,3.50
2023-04-19T20:42:18.381Z,3.93
2023-04-19T20:44:45.179Z,4.50
2023-04-19T20:47:11.893Z,5.18
2023-04-19T20:49:39.733Z,4.55
2023-04-19T20:52:06.451Z,3.60
2023-04-19T20:54:33.167Z,3.85
2023-04-19T20:57:00.741Z,4.93
2023-04-19T20:59:28.843Z,4.22
2023-04-19T21:01:55.547Z,3.78
2023-04-19T21:04:22.491Z,5.05
2023-04-19T21:06:49.277Z,3.80
2023-04-19T21:09:16.242Z,4.18
2023-04-19T21:11:43.124Z,4.15
2023-04-19T21:14:09.834Z,3.63
2023-04-19T21:16:37.896Z,4.40
2023-04-19T21:19:04.638Z,3.85
2023-04-19T21:21:32.521Z,4.10
2023-04-19T21:23:59.484Z,3.70
2023-04-19T21:26:26.344Z,4.07
2023-04-19T21:28:53.085Z,3.50
2023-04-19T21:31:19.874Z,4.03
2023-04-19T21:33:47.963Z,4.13
2023-04-19T21:36:14.655Z,4.00
2023-04-19T21:38:41.415Z,4.10
2023-04-19T21:41:08.129Z,4.50
2023-04-19T21:43:34.861Z,4.07
2023-04-19T21:46:01.580Z,4.82
2023-04-19T21:48:28.310Z,4.15
2023-04-19T21:50:56.357Z,4.70
2023-04-19T21:53:23.101Z,4.55
2023-04-19T21:55:50.019Z,4.70
2023-04-19T21:58:17.756Z,4.85
2023-04-19T22:00:45.575Z,4.20
2023-04-19T22:03:12.626Z,5.25
2023-04-19T22:05:39.453Z,4.88
2023-04-19T22:08:07.601Z,4.65
2023-04-19T22:10:34.427Z,4.53
2023-04-19T22:13:02.755Z,6.05
2023-04-19T22:15:29.671Z,5.15
2023-04-19T22:17:56.494Z,4.90
2023-04-19T22:20:23.531Z,5.70
2023-04-19T22:22:50.238Z,4.80
2023-04-19T22:25:18.557Z,4.30
2023-04-19T22:27:45.275Z,4.57
2023-04-19T22:30:12.214Z,5.05
2023-04-19T22:32:38.974Z,4.68
2023-04-19T22:35:06.286Z,4.75
2023-04-19T22:37:33.028Z,4.22
2023-04-19T22:39:59.766Z,4.60
2023-04-19T22:42:27.820Z,4.88
2023-04-19T22:44:54.533Z,4.03
2023-04-19T22:47:21.304Z,5.03
2023-04-19T22:49:48.068Z,5.18
2023-04-19T22:52:14.775Z,5.35
2023-04-19T22:54:41.570Z,4.65
2023-04-19T22:57:08.314Z,5.18
2023-04-19T22:59:36.410Z,5.07
2023-04-19T23:02:03.528Z,4.50
2023-04-19T23:04:33.260Z,5.35
2023-04-19T23:07:00.017Z,4.50
2023-04-19T23:09:26.742Z,4.95
2023-04-19T23:11:53.429Z,4.55
2023-04-19T23:14:20.137Z,4.30
2023-04-19T23:16:48.158Z,4.75
2023-04-19T23:19:15.077Z,3.95
2023-04-19T23:21:41.992Z,4.88
2023-04-19T23:24:08.934Z,4.68
2023-04-19T23:26:35.609Z,4.50
2023-04-19T23:29:02.293Z,5.28
2023-04-19T23:31:29.063Z,3.80
2023-04-19T23:33:59.863Z,4.70
2023-04-19T23:36:26.583Z,4.78
2023-04-19T23:38:53.305Z,4.75
2023-04-19T23:41:20.005Z,5.47
2023-04-19T23:43:46.729Z,4.80
2023-04-19T23:46:13.466Z,5.30
2023-04-19T23:48:40.193Z,5.20
2023-04-19T23:51:08.238Z,4.70
2023-04-19T23:53:34.960Z,5.07
2023-04-19T23:56:01.695Z,5.45
2023-04-19T23:58:28.444Z,4.80
